sensor_id;sensor_type;location;lat;lon;timestamp;pressure;altitude;pressure_sealevel;temperature;humidity
50696;BME280;36665;51.786;21.594;2023-02-21T00:04:33;94428.90;;;6.10;79.27
50696;BME280;36665;51.786;21.594;2023-02-21T00:13:14;94442.73;;;6.14;79.44
50696;BME280;36665;51.786;21.594;2023-02-21T00:21:56;94454.98;;;6.16;79.28
50696;BME280;36665;51.786;21.594;2023-02-21T00:30:38;94459.23;;;6.18;79.28
50696;BME280;36665;51.786;21.594;2023-02-21T00:39:20;94465.25;;;6.18;79.29
50696;BME280;36665;51.786;21.594;2023-02-21T00:48:02;94475.59;;;6.20;79.33
50696;BME280;36665;51.786;21.594;2023-02-21T00:56:44;94454.02;;;6.15;79.44
50696;BME280;36665;51.786;21.594;2023-02-21T01:05:26;94456.46;;;6.16;79.42
50696;BME280;36665;51.786;21.594;2023-02-21T01:14:08;94461.45;;;6.18;79.43
50696;BME280;36665;51.786;21.594;2023-02-21T01:22:50;94426.59;;;6.08;79.40
50696;BME280;36665;51.786;21.594;2023-02-21T01:31:32;94373.67;;;5.95;79.20
50696;BME280;36665;51.786;21.594;2023-02-21T01:40:14;94332.48;;;5.84;79.20
50696;BME280;36665;51.786;21.594;2023-02-21T01:48:59;94316.23;;;5.79;79.08
50696;BME280;36665;51.786;21.594;2023-02-21T01:57:44;94299.40;;;5.75;79.28
50696;BME280;36665;51.786;21.594;2023-02-21T02:06:26;94325.54;;;5.81;79.24
50696;BME280;36665;51.786;21.594;2023-02-21T02:15:26;94320.16;;;5.81;79.23
50696;BME280;36665;51.786;21.594;2023-02-21T02:33:06;94373.26;;;5.94;79.12
50696;BME280;36665;51.786;21.594;2023-02-21T02:50:05;94454.45;;;6.17;79.21
50696;BME280;36665;51.786;21.594;2023-02-21T02:58:40;94459.15;;;6.18;79.03
50696;BME280;36665;51.786;21.594;2023-02-21T03:24:13;94337.56;;;5.85;78.75
50696;BME280;36665;51.786;21.594;2023-02-21T03:32:47;94327.70;;;5.83;79.07
50696;BME280;36665;51.786;21.594;2023-02-21T03:41:14;94334.71;;;5.86;78.83
50696;BME280;36665;51.786;21.594;2023-02-21T03:49:37;94330.31;;;5.85;78.51
50696;BME280;36665;51.786;21.594;2023-02-21T03:58:01;94321.69;;;5.82;78.43
50696;BME280;36665;51.786;21.594;2023-02-21T04:06:24;94311.46;;;5.80;78.55
50696;BME280;36665;51.786;21.594;2023-02-21T04:14:47;94300.11;;;5.76;78.63
50696;BME280;36665;51.786;21.594;2023-02-21T04:23:14;94270.52;;;5.69;78.49
50696;BME280;36665;51.786;21.594;2023-02-21T04:31:39;94233.38;;;5.60;78.38
50696;BME280;36665;51.786;21.594;2023-02-21T04:40:07;94239.11;;;5.62;78.13
50696;BME280;36665;51.786;21.594;2023-02-21T04:57:44;94238.90;;;5.62;78.19
50696;BME280;36665;51.786;21.594;2023-02-21T05:06:07;94193.55;;;5.50;78.10
50696;BME280;36665;51.786;21.594;2023-02-21T05:14:30;94136.50;;;5.35;78.25
50696;BME280;36665;51.786;21.594;2023-02-21T05:22:53;94078.71;;;5.20;78.08
50696;BME280;36665;51.786;21.594;2023-02-21T05:31:21;94035.16;;;5.10;77.76
50696;BME280;36665;51.786;21.594;2023-02-21T05:39:46;93995.48;;;5.00;77.73
50696;BME280;36665;51.786;21.594;2023-02-21T05:48:09;93961.00;;;4.92;77.66
50696;BME280;36665;51.786;21.594;2023-02-21T05:56:40;93917.98;;;4.80;77.57
50696;BME280;36665;51.786;21.594;2023-02-21T06:05:03;93893.63;;;4.73;77.76
50696;BME280;36665;51.786;21.594;2023-02-21T06:13:26;93877.79;;;4.70;77.42
50696;BME280;36665;51.786;21.594;2023-02-21T06:21:49;93874.71;;;4.68;77.21
50696;BME280;36665;51.786;21.594;2023-02-21T06:30:12;93879.95;;;4.71;77.16
50696;BME280;36665;51.786;21.594;2023-02-21T06:38:35;93896.98;;;4.74;77.49
50696;BME280;36665;51.786;21.594;2023-02-21T06:46:58;93919.23;;;4.82;77.42
50696;BME280;36665;51.786;21.594;2023-02-21T06:55:22;93971.75;;;4.96;77.43
50696;BME280;36665;51.786;21.594;2023-02-21T07:03:48;94001.98;;;5.03;77.33
50696;BME280;36665;51.786;21.594;2023-02-21T07:12:11;94047.84;;;5.15;77.41
50696;BME280;36665;51.786;21.594;2023-02-21T07:20:34;94090.08;;;5.26;77.15
50696;BME280;36665;51.786;21.594;2023-02-21T07:28:57;94168.95;;;5.47;77.25
50696;BME280;36665;51.786;21.594;2023-02-21T07:37:20;94275.67;;;5.75;77.19
50696;BME280;36665;51.786;21.594;2023-02-21T07:45:43;94428.41;;;6.15;77.27
50696;BME280;36665;51.786;21.594;2023-02-21T07:54:05;94449.20;;;6.21;77.22
50696;BME280;36665;51.786;21.594;2023-02-21T08:02:28;94569.98;;;6.53;77.27
50696;BME280;36665;51.786;21.594;2023-02-21T08:10:51;94593.58;;;6.59;77.30
50696;BME280;36665;51.786;21.594;2023-02-21T08:19:14;94498.81;;;6.34;77.20
50696;BME280;36665;51.786;21.594;2023-02-21T08:27:38;94440.61;;;6.19;77.01
50696;BME280;36665;51.786;21.594;2023-02-21T08:36:03;94404.42;;;6.10;77.14
50696;BME280;36665;51.786;21.594;2023-02-21T08:44:26;94380.48;;;6.03;77.18
50696;BME280;36665;51.786;21.594;2023-02-21T08:52:49;94383.85;;;6.05;76.88
50696;BME280;36665;51.786;21.594;2023-02-21T09:01:13;94463.81;;;6.27;76.81
50696;BME280;36665;51.786;21.594;2023-02-21T09:09:37;94569.56;;;6.54;76.89
50696;BME280;36665;51.786;21.594;2023-02-21T09:18:00;94674.33;;;6.81;76.96
50696;BME280;36665;51.786;21.594;2023-02-21T09:26:24;94791.23;;;7.12;76.83
50696;BME280;36665;51.786;21.594;2023-02-21T09:34:47;94737.73;;;6.97;77.00
50696;BME280;36665;51.786;21.594;2023-02-21T09:52:17;94591.84;;;6.61;76.55
50696;BME280;36665;51.786;21.594;2023-02-21T10:00:43;94643.79;;;6.74;76.59
50696;BME280;36665;51.786;21.594;2023-02-21T10:09:33;94715.96;;;6.92;76.70
50696;BME280;36665;51.786;21.594;2023-02-21T10:18:09;94794.57;;;7.13;76.68
50696;BME280;36665;51.786;21.594;2023-02-21T10:26:47;94785.39;;;7.11;76.61
50696;BME280;36665;51.786;21.594;2023-02-21T10:35:14;94659.02;;;6.78;76.53
50696;BME280;36665;51.786;21.594;2023-02-21T10:43:43;94447.45;;;6.23;76.52
50696;BME280;36665;51.786;21.594;2023-02-21T10:52:11;94329.88;;;5.92;76.14
50696;BME280;36665;51.786;21.594;2023-02-21T11:00:39;94246.20;;;5.70;76.08
50696;BME280;36665;51.786;21.594;2023-02-21T11:18:12;94333.64;;;5.94;76.19
50696;BME280;36665;51.786;21.594;2023-02-21T11:26:43;94419.40;;;6.16;76.31
50696;BME280;36665;51.786;21.594;2023-02-21T11:35:34;94507.48;;;6.39;76.21
50696;BME280;36665;51.786;21.594;2023-02-21T11:43:58;94595.35;;;6.62;76.17
50696;BME280;36665;51.786;21.594;2023-02-21T11:52:27;94671.27;;;6.81;76.23
50696;BME280;36665;51.786;21.594;2023-02-21T12:00:57;94743.34;;;7.01;76.31
50696;BME280;36665;51.786;21.594;2023-02-21T12:18:07;94799.23;;;7.14;76.28
50696;BME280;36665;51.786;21.594;2023-02-21T12:27:01;94738.92;;;7.00;76.33
50696;BME280;36665;51.786;21.594;2023-02-21T12:35:39;94678.39;;;6.83;76.17
50696;BME280;36665;51.786;21.594;2023-02-21T12:44:21;94647.04;;;6.75;76.20
50696;BME280;36665;51.786;21.594;2023-02-21T13:01:35;94653.19;;;6.79;76.08
50696;BME280;36665;51.786;21.594;2023-02-21T13:10:04;94698.80;;;6.90;75.97
50696;BME280;36665;51.786;21.594;2023-02-21T13:18:35;94719.35;;;6.95;75.96
50696;BME280;36665;51.786;21.594;2023-02-21T13:35:29;94556.83;;;6.54;75.69
50696;BME280;36665;51.786;21.594;2023-02-21T13:43:53;94495.88;;;6.37;75.84
50696;BME280;36665;51.786;21.594;2023-02-21T14:00:47;94349.58;;;6.00;75.57
50696;BME280;36665;51.786;21.594;2023-02-21T14:09:13;94228.73;;;5.67;75.51
50696;BME280;36665;51.786;21.594;2023-02-21T14:17:38;94142.30;;;5.44;75.35
50696;BME280;36665;51.786;21.594;2023-02-21T14:26:02;94104.45;;;5.34;75.46
50696;BME280;36665;51.786;21.594;2023-02-21T14:34:49;94061.84;;;5.23;75.56
50696;BME280;36665;51.786;21.594;2023-02-21T14:43:38;94027.11;;;5.14;75.49
50696;BME280;36665;51.786;21.594;2023-02-21T14:52:24;94000.16;;;5.08;75.21
50696;BME280;36665;51.786;21.594;2023-02-21T15:09:19;93910.01;;;4.85;75.54
50696;BME280;36665;51.786;21.594;2023-02-21T15:17:44;93896.73;;;4.81;75.45
50696;BME280;36665;51.786;21.594;2023-02-21T15:26:19;93880.66;;;4.76;75.37
50696;BME280;36665;51.786;21.594;2023-02-21T15:34:46;93880.34;;;4.76;75.27
50696;BME280;36665;51.786;21.594;2023-02-21T15:52:05;93884.81;;;4.78;75.35
50696;BME280;36665;51.786;21.594;2023-02-21T16:00:31;93882.10;;;4.77;75.52
50696;BME280;36665;51.786;21.594;2023-02-21T16:09:17;93901.45;;;4.81;75.63
50696;BME280;36665;51.786;21.594;2023-02-21T16:17:41;93915.25;;;4.84;75.68
50696;BME280;36665;51.786;21.594;2023-02-21T16:34:32;93957.06;;;4.96;75.70
50696;BME280;36665;51.786;21.594;2023-02-21T16:42:56;93981.43;;;5.02;75.72
50696;BME280;36665;51.786;21.594;2023-02-21T16:51:21;93989.42;;;5.05;75.63
50696;BME280;36665;51.786;21.594;2023-02-21T16:59:44;93987.92;;;5.05;75.54
50696;BME280;36665;51.786;21.594;2023-02-21T17:08:07;93995.88;;;5.06;75.62
50696;BME280;36665;51.786;21.594;2023-02-21T17:16:30;93999.55;;;5.07;75.70
50696;BME280;36665;51.786;21.594;2023-02-21T17:24:53;94012.20;;;5.10;75.74
50696;BME280;36665;51.786;21.594;2023-02-21T17:33:17;94015.77;;;5.11;75.83
50696;BME280;36665;51.786;21.594;2023-02-21T17:41:50;94011.84;;;5.11;75.60
50696;BME280;36665;51.786;21.594;2023-02-21T17:50:14;94021.86;;;5.13;75.70
50696;BME280;36665;51.786;21.594;2023-02-21T17:58:37;94029.23;;;5.14;75.66
50696;BME280;36665;51.786;21.594;2023-02-21T18:07:00;94030.66;;;5.15;75.66
50696;BME280;36665;51.786;21.594;2023-02-21T18:15:25;94020.41;;;5.12;75.80
50696;BME280;36665;51.786;21.594;2023-02-21T18:23:50;94017.20;;;5.11;75.54
50696;BME280;36665;51.786;21.594;2023-02-21T18:32:13;94016.08;;;5.11;75.52
50696;BME280;36665;51.786;21.594;2023-02-21T18:40:36;94017.00;;;5.12;75.67
50696;BME280;36665;51.786;21.594;2023-02-21T18:49:06;94006.36;;;5.10;75.57
50696;BME280;36665;51.786;21.594;2023-02-21T18:57:30;93985.63;;;5.05;75.48
50696;BME280;36665;51.786;21.594;2023-02-21T19:05:53;93937.06;;;4.92;75.35
50696;BME280;36665;51.786;21.594;2023-02-21T19:14:15;93887.25;;;4.79;75.36
50696;BME280;36665;51.786;21.594;2023-02-21T19:22:39;93828.30;;;4.63;75.27
50696;BME280;36665;51.786;21.594;2023-02-21T19:31:03;93783.73;;;4.51;75.24
50696;BME280;36665;51.786;21.594;2023-02-21T19:39:26;93733.86;;;4.38;75.41
50696;BME280;36665;51.786;21.594;2023-02-21T19:47:49;93693.98;;;4.27;75.53
50696;BME280;36665;51.786;21.594;2023-02-21T19:56:13;93648.86;;;4.15;75.47
50696;BME280;36665;51.786;21.594;2023-02-21T20:04:36;93613.11;;;4.06;75.24
50696;BME280;36665;51.786;21.594;2023-02-21T20:12:59;93629.20;;;4.10;75.22
50696;BME280;36665;51.786;21.594;2023-02-21T20:21:28;93675.74;;;4.21;75.45
50696;BME280;36665;51.786;21.594;2023-02-21T20:29:52;93728.16;;;4.36;75.54
50696;BME280;36665;51.786;21.594;2023-02-21T20:38:15;93759.23;;;4.45;75.38
50696;BME280;36665;51.786;21.594;2023-02-21T20:46:37;93767.39;;;4.48;75.46
50696;BME280;36665;51.786;21.594;2023-02-21T20:55:02;93772.64;;;4.48;75.52
50696;BME280;36665;51.786;21.594;2023-02-21T21:03:25;93767.08;;;4.47;75.26
50696;BME280;36665;51.786;21.594;2023-02-21T21:11:51;93764.67;;;4.46;75.43
50696;BME280;36665;51.786;21.594;2023-02-21T21:20:18;93771.35;;;4.48;75.19
50696;BME280;36665;51.786;21.594;2023-02-21T21:28:41;93774.77;;;4.48;75.22
50696;BME280;36665;51.786;21.594;2023-02-21T21:37:05;93769.08;;;4.47;75.50
50696;BME280;36665;51.786;21.594;2023-02-21T21:45:27;93758.37;;;4.44;75.49
50696;BME280;36665;51.786;21.594;2023-02-21T21:53:50;93746.14;;;4.40;75.42
50696;BME280;36665;51.786;21.594;2023-02-21T22:02:13;93675.83;;;4.22;75.45
50696;BME280;36665;51.786;21.594;2023-02-21T22:10:37;93626.86;;;4.10;75.23
50696;BME280;36665;51.786;21.594;2023-02-21T22:19:00;93580.52;;;3.96;75.19
50696;BME280;36665;51.786;21.594;2023-02-21T22:27:24;93503.39;;;3.76;75.28
50696;BME280;36665;51.786;21.594;2023-02-21T22:35:47;93448.86;;;3.61;75.45
50696;BME280;36665;51.786;21.594;2023-02-21T22:44:10;93422.10;;;3.55;75.31
50696;BME280;36665;51.786;21.594;2023-02-21T22:52:34;93398.48;;;3.49;75.42
50696;BME280;36665;51.786;21.594;2023-02-21T23:00:57;93374.28;;;3.42;75.42
50696;BME280;36665;51.786;21.594;2023-02-21T23:09:22;93364.73;;;3.39;75.53
50696;BME280;36665;51.786;21.594;2023-02-21T23:17:48;93362.09;;;3.38;75.38
50696;BME280;36665;51.786;21.594;2023-02-21T23:26:14;93357.02;;;3.37;75.20
50696;BME280;36665;51.786;21.594;2023-02-21T23:34:37;93351.20;;;3.35;75.61
50696;BME280;36665;51.786;21.594;2023-02-21T23:43:03;93321.16;;;3.27;75.50
50696;BME280;36665;51.786;21.594;2023-02-21T23:51:26;93296.17;;;3.20;75.69
50696;BME280;36665;51.786;21.594;2023-02-21T23:59:48;93287.16;;;3.17;75.47
